sensor_id;sensor_type;location;lat;lon;timestamp;temperature;humidity
38788;DHT22;24536;45.488;12.238;2023-05-02T00:02:04;16.40;94.10
38788;DHT22;24536;45.488;12.238;2023-05-02T00:04:29;16.40;94.20
38788;DHT22;24536;45.488;12.238;2023-05-02T00:06:55;16.30;94.20
38788;DHT22;24536;45.488;12.238;2023-05-02T00:09:21;16.40;94.60
38788;DHT22;24536;45.488;12.238;2023-05-02T00:11:47;16.30;94.30
38788;DHT22;24536;45.488;12.238;2023-05-02T00:14:12;16.30;94.30
38788;DHT22;24536;45.488;12.238;2023-05-02T00:16:38;16.30;94.30
38788;DHT22;24536;45.488;12.238;2023-05-02T00:19:04;16.30;94.30
38788;DHT22;24536;45.488;12.238;2023-05-02T00:21:30;16.30;94.30
38788;DHT22;24536;45.488;12.238;2023-05-02T00:23:57;16.40;94.20
38788;DHT22;24536;45.488;12.238;2023-05-02T00:26:23;16.40;94.20
38788;DHT22;24536;45.488;12.238;2023-05-02T00:28:49;16.40;94.20
38788;DHT22;24536;45.488;12.238;2023-05-02T00:31:15;16.50;94.10
38788;DHT22;24536;45.488;12.238;2023-05-02T00:33:41;16.50;94.00
38788;DHT22;24536;45.488;12.238;2023-05-02T00:36:17;16.50;94.10
38788;DHT22;24536;45.488;12.238;2023-05-02T00:38:44;16.50;94.10
38788;DHT22;24536;45.488;12.238;2023-05-02T00:41:10;16.50;94.20
38788;DHT22;24536;45.488;12.238;2023-05-02T00:43:36;16.40;94.20
38788;DHT22;24536;45.488;12.238;2023-05-02T00:46:04;16.40;94.10
38788;DHT22;24536;45.488;12.238;2023-05-02T00:48:31;16.40;94.10
38788;DHT22;24536;45.488;12.238;2023-05-02T00:50:57;16.30;94.20
38788;DHT22;24536;45.488;12.238;2023-05-02T00:53:23;16.30;94.20
38788;DHT22;24536;45.488;12.238;2023-05-02T00:55:49;16.30;94.30
38788;DHT22;24536;45.488;12.238;2023-05-02T00:58:16;16.30;94.30
38788;DHT22;24536;45.488;12.238;2023-05-02T01:03:19;16.30;94.20
38788;DHT22;24536;45.488;12.238;2023-05-02T01:06:04;16.30;94.20
38788;DHT22;24536;45.488;12.238;2023-05-02T01:08:43;16.20;94.20
38788;DHT22;24536;45.488;12.238;2023-05-02T01:11:16;16.20;94.20
38788;DHT22;24536;45.488;12.238;2023-05-02T01:13:45;16.20;94.20
38788;DHT22;24536;45.488;12.238;2023-05-02T01:16:13;16.20;94.20
38788;DHT22;24536;45.488;12.238;2023-05-02T01:18:41;16.20;94.20
38788;DHT22;24536;45.488;12.238;2023-05-02T01:21:10;16.10;94.20
38788;DHT22;24536;45.488;12.238;2023-05-02T01:24:06;16.10;94.20
38788;DHT22;24536;45.488;12.238;2023-05-02T01:29:21;16.20;94.30
38788;DHT22;24536;45.488;12.238;2023-05-02T01:31:49;16.20;94.10
38788;DHT22;24536;45.488;12.238;2023-05-02T01:34:18;16.10;94.00
38788;DHT22;24536;45.488;12.238;2023-05-02T01:36:46;16.10;94.00
38788;DHT22;24536;45.488;12.238;2023-05-02T01:39:23;16.20;94.00
38788;DHT22;24536;45.488;12.238;2023-05-02T01:41:51;16.20;93.90
38788;DHT22;24536;45.488;12.238;2023-05-02T01:44:19;16.20;94.00
38788;DHT22;24536;45.488;12.238;2023-05-02T01:46:46;16.30;94.10
38788;DHT22;24536;45.488;12.238;2023-05-02T01:49:13;16.30;94.00
38788;DHT22;24536;45.488;12.238;2023-05-02T01:51:44;16.20;93.90
38788;DHT22;24536;45.488;12.238;2023-05-02T01:54:12;16.20;94.00
38788;DHT22;24536;45.488;12.238;2023-05-02T01:56:39;16.10;94.00
38788;DHT22;24536;45.488;12.238;2023-05-02T01:59:10;16.10;94.10
38788;DHT22;24536;45.488;12.238;2023-05-02T02:01:38;16.00;94.10
38788;DHT22;24536;45.488;12.238;2023-05-02T02:04:06;16.00;94.20
38788;DHT22;24536;45.488;12.238;2023-05-02T02:06:33;16.00;94.20
38788;DHT22;24536;45.488;12.238;2023-05-02T02:08:59;16.00;94.10
38788;DHT22;24536;45.488;12.238;2023-05-02T02:11:33;16.00;94.10
38788;DHT22;24536;45.488;12.238;2023-05-02T02:14:11;15.90;94.10
38788;DHT22;24536;45.488;12.238;2023-05-02T02:16:39;16.00;94.10
38788;DHT22;24536;45.488;12.238;2023-05-02T02:19:08;16.00;94.10
38788;DHT22;24536;45.488;12.238;2023-05-02T02:21:35;16.00;94.10
38788;DHT22;24536;45.488;12.238;2023-05-02T02:24:04;16.00;94.10
38788;DHT22;24536;45.488;12.238;2023-05-02T02:26:31;16.00;94.30
38788;DHT22;24536;45.488;12.238;2023-05-02T02:28:59;16.00;94.30
38788;DHT22;24536;45.488;12.238;2023-05-02T02:31:30;16.10;94.30
38788;DHT22;24536;45.488;12.238;2023-05-02T02:33:56;16.10;94.30
38788;DHT22;24536;45.488;12.238;2023-05-02T02:44:55;16.10;94.40
38788;DHT22;24536;45.488;12.238;2023-05-02T02:53:25;16.00;94.40
38788;DHT22;24536;45.488;12.238;2023-05-02T02:55:59;16.00;94.40
38788;DHT22;24536;45.488;12.238;2023-05-02T03:01:21;15.90;94.50
38788;DHT22;24536;45.488;12.238;2023-05-02T03:03:47;15.80;94.60
38788;DHT22;24536;45.488;12.238;2023-05-02T03:06:15;15.80;94.70
38788;DHT22;24536;45.488;12.238;2023-05-02T03:08:42;15.80;94.70
38788;DHT22;24536;45.488;12.238;2023-05-02T03:11:09;15.80;94.70
38788;DHT22;24536;45.488;12.238;2023-05-02T03:13:35;15.70;94.70
38788;DHT22;24536;45.488;12.238;2023-05-02T03:16:26;15.70;94.80
38788;DHT22;24536;45.488;12.238;2023-05-02T03:18:53;15.80;94.80
38788;DHT22;24536;45.488;12.238;2023-05-02T03:21:19;15.80;94.80
38788;DHT22;24536;45.488;12.238;2023-05-02T03:23:45;15.80;94.80
38788;DHT22;24536;45.488;12.238;2023-05-02T03:26:10;15.70;94.80
38788;DHT22;24536;45.488;12.238;2023-05-02T03:28:36;15.70;94.80
38788;DHT22;24536;45.488;12.238;2023-05-02T03:31:02;15.70;94.80
38788;DHT22;24536;45.488;12.238;2023-05-02T03:33:28;15.70;94.80
38788;DHT22;24536;45.488;12.238;2023-05-02T03:35:53;15.80;94.80
38788;DHT22;24536;45.488;12.238;2023-05-02T03:38:19;15.80;94.80
38788;DHT22;24536;45.488;12.238;2023-05-02T03:40:45;15.80;94.80
38788;DHT22;24536;45.488;12.238;2023-05-02T03:43:10;15.80;94.70
38788;DHT22;24536;45.488;12.238;2023-05-02T03:45:36;15.80;94.80
38788;DHT22;24536;45.488;12.238;2023-05-02T03:48:02;15.90;94.80
38788;DHT22;24536;45.488;12.238;2023-05-02T03:50:28;15.90;94.70
38788;DHT22;24536;45.488;12.238;2023-05-02T03:52:54;15.80;94.80
38788;DHT22;24536;45.488;12.238;2023-05-02T03:55:20;15.80;94.70
38788;DHT22;24536;45.488;12.238;2023-05-02T03:57:46;15.80;94.80
38788;DHT22;24536;45.488;12.238;2023-05-02T04:00:12;15.80;94.70
38788;DHT22;24536;45.488;12.238;2023-05-02T04:02:38;15.90;94.70
38788;DHT22;24536;45.488;12.238;2023-05-02T04:05:04;15.90;94.80
38788;DHT22;24536;45.488;12.238;2023-05-02T04:07:30;15.90;94.80
38788;DHT22;24536;45.488;12.238;2023-05-02T04:09:55;15.90;94.80
38788;DHT22;24536;45.488;12.238;2023-05-02T04:12:21;16.00;94.80
38788;DHT22;24536;45.488;12.238;2023-05-02T04:14:47;15.90;94.70
38788;DHT22;24536;45.488;12.238;2023-05-02T04:17:13;15.90;94.70
38788;DHT22;24536;45.488;12.238;2023-05-02T04:19:40;15.90;94.70
38788;DHT22;24536;45.488;12.238;2023-05-02T04:22:05;16.00;94.70
38788;DHT22;24536;45.488;12.238;2023-05-02T04:24:31;16.00;94.70
38788;DHT22;24536;45.488;12.238;2023-05-02T04:26:57;16.00;94.70
38788;DHT22;24536;45.488;12.238;2023-05-02T04:29:22;16.00;94.60
38788;DHT22;24536;45.488;12.238;2023-05-02T04:31:48;15.90;94.60
38788;DHT22;24536;45.488;12.238;2023-05-02T04:34:15;16.00;94.80
38788;DHT22;24536;45.488;12.238;2023-05-02T04:36:41;15.90;94.50
38788;DHT22;24536;45.488;12.238;2023-05-02T04:39:06;15.90;94.60
38788;DHT22;24536;45.488;12.238;2023-05-02T04:41:33;16.00;94.50
38788;DHT22;24536;45.488;12.238;2023-05-02T04:43:58;15.90;94.50
38788;DHT22;24536;45.488;12.238;2023-05-02T04:46:24;16.00;94.40
38788;DHT22;24536;45.488;12.238;2023-05-02T04:48:50;16.00;94.40
38788;DHT22;24536;45.488;12.238;2023-05-02T04:51:15;16.00;94.40
38788;DHT22;24536;45.488;12.238;2023-05-02T04:53:41;16.00;94.40
38788;DHT22;24536;45.488;12.238;2023-05-02T04:56:07;16.00;94.50
38788;DHT22;24536;45.488;12.238;2023-05-02T04:58:32;16.00;94.40
38788;DHT22;24536;45.488;12.238;2023-05-02T05:00:59;16.00;94.30
38788;DHT22;24536;45.488;12.238;2023-05-02T05:03:26;16.00;94.40
38788;DHT22;24536;45.488;12.238;2023-05-02T05:05:54;16.10;94.40
38788;DHT22;24536;45.488;12.238;2023-05-02T05:08:19;16.10;94.40
38788;DHT22;24536;45.488;12.238;2023-05-02T05:10:45;16.00;94.40
38788;DHT22;24536;45.488;12.238;2023-05-02T05:13:11;16.00;94.40
38788;DHT22;24536;45.488;12.238;2023-05-02T05:15:38;16.00;94.50
38788;DHT22;24536;45.488;12.238;2023-05-02T05:18:04;16.10;94.50
38788;DHT22;24536;45.488;12.238;2023-05-02T05:20:31;16.00;94.50
38788;DHT22;24536;45.488;12.238;2023-05-02T05:22:58;16.00;94.50
38788;DHT22;24536;45.488;12.238;2023-05-02T05:25:25;16.00;94.50
38788;DHT22;24536;45.488;12.238;2023-05-02T05:27:52;16.00;94.40
38788;DHT22;24536;45.488;12.238;2023-05-02T05:30:17;16.00;94.40
38788;DHT22;24536;45.488;12.238;2023-05-02T05:32:43;16.00;94.40
38788;DHT22;24536;45.488;12.238;2023-05-02T05:35:09;16.10;94.50
38788;DHT22;24536;45.488;12.238;2023-05-02T05:37:35;16.10;94.40
38788;DHT22;24536;45.488;12.238;2023-05-02T05:40:05;16.10;94.40
38788;DHT22;24536;45.488;12.238;2023-05-02T05:42:31;16.10;94.50
38788;DHT22;24536;45.488;12.238;2023-05-02T05:44:57;16.10;94.30
38788;DHT22;24536;45.488;12.238;2023-05-02T05:47:22;16.10;94.30
38788;DHT22;24536;45.488;12.238;2023-05-02T05:49:54;16.10;94.30
38788;DHT22;24536;45.488;12.238;2023-05-02T05:52:20;16.10;94.30
38788;DHT22;24536;45.488;12.238;2023-05-02T05:54:46;16.10;94.30
38788;DHT22;24536;45.488;12.238;2023-05-02T05:57:12;16.10;94.30
38788;DHT22;24536;45.488;12.238;2023-05-02T05:59:38;16.10;94.40
38788;DHT22;24536;45.488;12.238;2023-05-02T06:02:03;16.10;94.40
38788;DHT22;24536;45.488;12.238;2023-05-02T06:04:30;16.00;94.40
38788;DHT22;24536;45.488;12.238;2023-05-02T06:06:56;16.10;94.40
38788;DHT22;24536;45.488;12.238;2023-05-02T06:09:21;16.10;94.50
38788;DHT22;24536;45.488;12.238;2023-05-02T06:11:47;16.10;94.50
38788;DHT22;24536;45.488;12.238;2023-05-02T06:14:13;16.20;94.50
38788;DHT22;24536;45.488;12.238;2023-05-02T06:16:39;16.20;94.50
38788;DHT22;24536;45.488;12.238;2023-05-02T06:19:05;16.20;94.40
38788;DHT22;24536;45.488;12.238;2023-05-02T06:21:31;16.20;94.40
38788;DHT22;24536;45.488;12.238;2023-05-02T06:23:56;16.30;94.40
38788;DHT22;24536;45.488;12.238;2023-05-02T06:26:22;16.30;94.30
38788;DHT22;24536;45.488;12.238;2023-05-02T06:28:48;16.30;94.40
38788;DHT22;24536;45.488;12.238;2023-05-02T06:31:13;16.30;94.30
38788;DHT22;24536;45.488;12.238;2023-05-02T06:33:40;16.40;94.40
38788;DHT22;24536;45.488;12.238;2023-05-02T06:36:07;16.40;94.30
38788;DHT22;24536;45.488;12.238;2023-05-02T06:38:32;16.40;94.30
38788;DHT22;24536;45.488;12.238;2023-05-02T06:40:58;16.40;94.30
38788;DHT22;24536;45.488;12.238;2023-05-02T06:43:24;16.40;94.20
38788;DHT22;24536;45.488;12.238;2023-05-02T06:45:52;16.40;94.20
38788;DHT22;24536;45.488;12.238;2023-05-02T06:48:19;16.40;94.60
38788;DHT22;24536;45.488;12.238;2023-05-02T06:50:46;16.40;94.30
38788;DHT22;24536;45.488;12.238;2023-05-02T06:53:11;16.40;94.40
38788;DHT22;24536;45.488;12.238;2023-05-02T06:55:37;16.40;94.40
38788;DHT22;24536;45.488;12.238;2023-05-02T06:58:03;16.40;94.40
38788;DHT22;24536;45.488;12.238;2023-05-02T07:00:28;16.40;94.50
38788;DHT22;24536;45.488;12.238;2023-05-02T07:02:54;16.30;94.40
38788;DHT22;24536;45.488;12.238;2023-05-02T07:05:20;16.30;94.40
38788;DHT22;24536;45.488;12.238;2023-05-02T07:07:46;16.30;94.40
38788;DHT22;24536;45.488;12.238;2023-05-02T07:10:12;16.30;94.60
38788;DHT22;24536;45.488;12.238;2023-05-02T07:12:38;16.30;94.50
38788;DHT22;24536;45.488;12.238;2023-05-02T07:15:06;16.30;94.60
38788;DHT22;24536;45.488;12.238;2023-05-02T07:17:32;16.30;94.60
38788;DHT22;24536;45.488;12.238;2023-05-02T07:19:58;16.30;94.60
38788;DHT22;24536;45.488;12.238;2023-05-02T07:22:24;16.30;94.60
38788;DHT22;24536;45.488;12.238;2023-05-02T07:24:57;16.30;94.60
38788;DHT22;24536;45.488;12.238;2023-05-02T07:27:23;16.30;94.60
38788;DHT22;24536;45.488;12.238;2023-05-02T07:29:48;16.30;94.70
38788;DHT22;24536;45.488;12.238;2023-05-02T07:32:14;16.40;94.90
38788;DHT22;24536;45.488;12.238;2023-05-02T07:34:40;16.40;94.70
38788;DHT22;24536;45.488;12.238;2023-05-02T07:37:07;16.40;94.80
38788;DHT22;24536;45.488;12.238;2023-05-02T07:39:33;16.40;94.60
38788;DHT22;24536;45.488;12.238;2023-05-02T07:41:59;16.40;94.50
38788;DHT22;24536;45.488;12.238;2023-05-02T07:44:25;16.40;94.60
38788;DHT22;24536;45.488;12.238;2023-05-02T07:46:51;16.50;94.60
38788;DHT22;24536;45.488;12.238;2023-05-02T07:49:18;16.50;94.60
38788;DHT22;24536;45.488;12.238;2023-05-02T07:51:44;16.40;94.60
38788;DHT22;24536;45.488;12.238;2023-05-02T07:54:20;16.50;94.50
38788;DHT22;24536;45.488;12.238;2023-05-02T07:56:46;16.50;94.50
38788;DHT22;24536;45.488;12.238;2023-05-02T07:59:12;16.50;94.40
38788;DHT22;24536;45.488;12.238;2023-05-02T08:01:39;16.40;94.50
38788;DHT22;24536;45.488;12.238;2023-05-02T08:04:06;16.40;94.50
38788;DHT22;24536;45.488;12.238;2023-05-02T08:06:31;16.50;94.60
38788;DHT22;24536;45.488;12.238;2023-05-02T08:08:57;16.50;94.70
38788;DHT22;24536;45.488;12.238;2023-05-02T08:11:24;16.60;94.70
38788;DHT22;24536;45.488;12.238;2023-05-02T08:13:50;16.60;94.60
38788;DHT22;24536;45.488;12.238;2023-05-02T08:16:17;16.60;94.40
38788;DHT22;24536;45.488;12.238;2023-05-02T08:18:43;16.60;94.40
38788;DHT22;24536;45.488;12.238;2023-05-02T08:21:09;16.70;94.40
38788;DHT22;24536;45.488;12.238;2023-05-02T08:23:35;16.70;94.50
38788;DHT22;24536;45.488;12.238;2023-05-02T08:26:02;16.70;94.40
38788;DHT22;24536;45.488;12.238;2023-05-02T08:28:28;16.70;94.30
38788;DHT22;24536;45.488;12.238;2023-05-02T08:30:54;16.70;94.40
38788;DHT22;24536;45.488;12.238;2023-05-02T08:33:20;16.80;94.40
38788;DHT22;24536;45.488;12.238;2023-05-02T08:35:45;16.80;94.30
38788;DHT22;24536;45.488;12.238;2023-05-02T08:38:11;16.80;94.30
38788;DHT22;24536;45.488;12.238;2023-05-02T08:40:37;16.90;94.30
38788;DHT22;24536;45.488;12.238;2023-05-02T08:43:04;16.90;94.40
38788;DHT22;24536;45.488;12.238;2023-05-02T08:45:42;16.90;94.40
38788;DHT22;24536;45.488;12.238;2023-05-02T08:48:11;17.00;94.40
38788;DHT22;24536;45.488;12.238;2023-05-02T08:50:42;17.00;94.50
38788;DHT22;24536;45.488;12.238;2023-05-02T08:53:10;17.00;94.30
38788;DHT22;24536;45.488;12.238;2023-05-02T08:55:38;17.10;94.30
38788;DHT22;24536;45.488;12.238;2023-05-02T08:58:09;17.10;94.00
38788;DHT22;24536;45.488;12.238;2023-05-02T09:00:41;17.10;94.00
38788;DHT22;24536;45.488;12.238;2023-05-02T09:06:03;17.00;94.10
38788;DHT22;24536;45.488;12.238;2023-05-02T09:08:30;17.10;94.40
38788;DHT22;24536;45.488;12.238;2023-05-02T09:10:57;17.10;94.20
38788;DHT22;24536;45.488;12.238;2023-05-02T09:16:16;17.10;94.30
38788;DHT22;24536;45.488;12.238;2023-05-02T09:18:43;17.20;94.30
38788;DHT22;24536;45.488;12.238;2023-05-02T09:21:14;17.20;94.10
38788;DHT22;24536;45.488;12.238;2023-05-02T09:23:47;17.20;94.10
38788;DHT22;24536;45.488;12.238;2023-05-02T09:26:23;17.20;94.10
38788;DHT22;24536;45.488;12.238;2023-05-02T09:28:54;17.20;94.10
38788;DHT22;24536;45.488;12.238;2023-05-02T09:31:26;17.20;94.10
38788;DHT22;24536;45.488;12.238;2023-05-02T09:33:53;17.30;94.20
38788;DHT22;24536;45.488;12.238;2023-05-02T09:36:20;17.20;94.10
38788;DHT22;24536;45.488;12.238;2023-05-02T09:38:48;17.30;94.20
38788;DHT22;24536;45.488;12.238;2023-05-02T09:41:14;17.30;94.30
38788;DHT22;24536;45.488;12.238;2023-05-02T09:43:42;17.30;94.30
38788;DHT22;24536;45.488;12.238;2023-05-02T09:46:09;17.30;94.30
38788;DHT22;24536;45.488;12.238;2023-05-02T09:48:52;17.30;94.20
38788;DHT22;24536;45.488;12.238;2023-05-02T09:51:20;17.30;94.20
38788;DHT22;24536;45.488;12.238;2023-05-02T09:53:47;17.30;94.20
38788;DHT22;24536;45.488;12.238;2023-05-02T09:56:12;17.30;94.10
38788;DHT22;24536;45.488;12.238;2023-05-02T09:58:38;17.30;94.10
38788;DHT22;24536;45.488;12.238;2023-05-02T10:01:04;17.30;94.10
38788;DHT22;24536;45.488;12.238;2023-05-02T10:03:30;17.30;94.10
38788;DHT22;24536;45.488;12.238;2023-05-02T10:05:59;17.30;94.20
38788;DHT22;24536;45.488;12.238;2023-05-02T10:08:27;17.30;94.10
38788;DHT22;24536;45.488;12.238;2023-05-02T10:10:58;17.30;94.10
38788;DHT22;24536;45.488;12.238;2023-05-02T10:13:25;17.30;94.10
38788;DHT22;24536;45.488;12.238;2023-05-02T10:16:00;17.30;94.10
38788;DHT22;24536;45.488;12.238;2023-05-02T10:21:25;17.30;94.20
38788;DHT22;24536;45.488;12.238;2023-05-02T10:23:54;17.30;94.10
38788;DHT22;24536;45.488;12.238;2023-05-02T10:26:21;17.30;94.00
38788;DHT22;24536;45.488;12.238;2023-05-02T10:28:51;17.40;94.00
38788;DHT22;24536;45.488;12.238;2023-05-02T10:31:17;17.40;94.00
38788;DHT22;24536;45.488;12.238;2023-05-02T10:33:43;17.40;94.00
38788;DHT22;24536;45.488;12.238;2023-05-02T10:36:11;17.50;94.20
38788;DHT22;24536;45.488;12.238;2023-05-02T10:38:38;17.50;94.00
38788;DHT22;24536;45.488;12.238;2023-05-02T10:41:13;17.50;93.90
38788;DHT22;24536;45.488;12.238;2023-05-02T10:43:43;17.50;93.60
38788;DHT22;24536;45.488;12.238;2023-05-02T10:46:29;17.40;93.70
38788;DHT22;24536;45.488;12.238;2023-05-02T10:49:03;17.40;93.50
38788;DHT22;24536;45.488;12.238;2023-05-02T10:51:30;17.40;93.40
38788;DHT22;24536;45.488;12.238;2023-05-02T10:54:23;17.40;93.40
38788;DHT22;24536;45.488;12.238;2023-05-02T10:57:02;17.40;93.40
38788;DHT22;24536;45.488;12.238;2023-05-02T11:02:00;17.40;93.50
38788;DHT22;24536;45.488;12.238;2023-05-02T11:05:02;17.50;93.50
38788;DHT22;24536;45.488;12.238;2023-05-02T11:07:29;17.50;93.70
38788;DHT22;24536;45.488;12.238;2023-05-02T11:12:51;17.50;93.40
38788;DHT22;24536;45.488;12.238;2023-05-02T11:20:26;17.50;93.50
38788;DHT22;24536;45.488;12.238;2023-05-02T11:22:52;17.50;93.50
38788;DHT22;24536;45.488;12.238;2023-05-02T11:25:35;17.60;93.60
38788;DHT22;24536;45.488;12.238;2023-05-02T11:28:02;17.60;93.50
38788;DHT22;24536;45.488;12.238;2023-05-02T11:30:41;17.60;93.50
38788;DHT22;24536;45.488;12.238;2023-05-02T11:35:34;17.70;93.60
38788;DHT22;24536;45.488;12.238;2023-05-02T11:38:02;17.70;93.60
38788;DHT22;24536;45.488;12.238;2023-05-02T11:40:29;17.70;93.40
38788;DHT22;24536;45.488;12.238;2023-05-02T11:42:56;17.70;93.40
38788;DHT22;24536;45.488;12.238;2023-05-02T11:45:34;17.80;93.50
38788;DHT22;24536;45.488;12.238;2023-05-02T11:48:03;17.80;93.20
38788;DHT22;24536;45.488;12.238;2023-05-02T11:50:28;17.80;93.40
38788;DHT22;24536;45.488;12.238;2023-05-02T11:52:55;17.80;93.20
38788;DHT22;24536;45.488;12.238;2023-05-02T11:55:21;17.80;93.30
38788;DHT22;24536;45.488;12.238;2023-05-02T11:57:47;17.80;93.20
38788;DHT22;24536;45.488;12.238;2023-05-02T12:00:13;17.90;93.30
38788;DHT22;24536;45.488;12.238;2023-05-02T12:02:44;17.80;93.30
38788;DHT22;24536;45.488;12.238;2023-05-02T12:05:12;17.90;93.40
38788;DHT22;24536;45.488;12.238;2023-05-02T12:07:41;17.90;93.50
38788;DHT22;24536;45.488;12.238;2023-05-02T12:10:10;17.90;93.20
38788;DHT22;24536;45.488;12.238;2023-05-02T12:12:37;17.90;93.10
38788;DHT22;24536;45.488;12.238;2023-05-02T12:15:08;17.90;93.20
38788;DHT22;24536;45.488;12.238;2023-05-02T12:17:36;17.90;93.20
38788;DHT22;24536;45.488;12.238;2023-05-02T12:20:03;17.90;93.20
38788;DHT22;24536;45.488;12.238;2023-05-02T12:22:29;17.90;93.20
38788;DHT22;24536;45.488;12.238;2023-05-02T12:24:55;17.90;93.10
38788;DHT22;24536;45.488;12.238;2023-05-02T12:27:21;17.90;93.10
38788;DHT22;24536;45.488;12.238;2023-05-02T12:29:48;17.80;93.20
38788;DHT22;24536;45.488;12.238;2023-05-02T12:32:14;17.80;93.00
38788;DHT22;24536;45.488;12.238;2023-05-02T12:34:44;17.80;93.00
38788;DHT22;24536;45.488;12.238;2023-05-02T12:37:10;17.80;93.40
38788;DHT22;24536;45.488;12.238;2023-05-02T12:39:40;17.70;93.10
38788;DHT22;24536;45.488;12.238;2023-05-02T12:42:13;17.70;93.20
38788;DHT22;24536;45.488;12.238;2023-05-02T12:44:44;17.70;93.20
38788;DHT22;24536;45.488;12.238;2023-05-02T12:47:11;17.60;93.10
38788;DHT22;24536;45.488;12.238;2023-05-02T12:49:53;17.60;93.10
38788;DHT22;24536;45.488;12.238;2023-05-02T12:52:20;17.60;93.10
38788;DHT22;24536;45.488;12.238;2023-05-02T12:54:46;17.60;93.20
38788;DHT22;24536;45.488;12.238;2023-05-02T12:57:24;17.60;93.30
38788;DHT22;24536;45.488;12.238;2023-05-02T12:59:52;17.60;93.30
38788;DHT22;24536;45.488;12.238;2023-05-02T13:02:19;17.60;93.30
38788;DHT22;24536;45.488;12.238;2023-05-02T13:04:45;17.60;93.30
38788;DHT22;24536;45.488;12.238;2023-05-02T13:07:11;17.60;93.60
38788;DHT22;24536;45.488;12.238;2023-05-02T13:09:37;17.60;93.10
38788;DHT22;24536;45.488;12.238;2023-05-02T13:12:03;17.60;93.20
38788;DHT22;24536;45.488;12.238;2023-05-02T13:14:29;17.60;93.10
38788;DHT22;24536;45.488;12.238;2023-05-02T13:16:54;17.70;93.20
38788;DHT22;24536;45.488;12.238;2023-05-02T13:19:21;17.60;93.00
38788;DHT22;24536;45.488;12.238;2023-05-02T13:21:46;17.70;93.00
38788;DHT22;24536;45.488;12.238;2023-05-02T13:24:12;17.60;93.00
38788;DHT22;24536;45.488;12.238;2023-05-02T13:26:39;17.60;93.10
38788;DHT22;24536;45.488;12.238;2023-05-02T13:29:06;17.70;93.30
38788;DHT22;24536;45.488;12.238;2023-05-02T13:31:34;17.70;92.90
38788;DHT22;24536;45.488;12.238;2023-05-02T13:33:59;17.70;92.90
38788;DHT22;24536;45.488;12.238;2023-05-02T13:36:25;17.70;92.80
38788;DHT22;24536;45.488;12.238;2023-05-02T13:38:59;17.60;92.80
38788;DHT22;24536;45.488;12.238;2023-05-02T13:41:24;17.60;92.80
38788;DHT22;24536;45.488;12.238;2023-05-02T13:43:50;17.60;93.00
38788;DHT22;24536;45.488;12.238;2023-05-02T13:46:16;17.60;93.10
38788;DHT22;24536;45.488;12.238;2023-05-02T13:48:41;17.60;92.90
38788;DHT22;24536;45.488;12.238;2023-05-02T13:51:07;17.60;92.70
38788;DHT22;24536;45.488;12.238;2023-05-02T13:53:34;17.50;92.70
38788;DHT22;24536;45.488;12.238;2023-05-02T13:56:00;17.50;92.90
38788;DHT22;24536;45.488;12.238;2023-05-02T13:58:26;17.60;93.10
38788;DHT22;24536;45.488;12.238;2023-05-02T14:00:52;17.60;93.10
38788;DHT22;24536;45.488;12.238;2023-05-02T14:03:18;17.60;93.00
38788;DHT22;24536;45.488;12.238;2023-05-02T14:05:44;17.60;93.00
38788;DHT22;24536;45.488;12.238;2023-05-02T14:08:10;17.60;93.00
38788;DHT22;24536;45.488;12.238;2023-05-02T14:10:37;17.60;93.00
38788;DHT22;24536;45.488;12.238;2023-05-02T14:13:03;17.60;93.10
38788;DHT22;24536;45.488;12.238;2023-05-02T14:15:29;17.60;93.10
38788;DHT22;24536;45.488;12.238;2023-05-02T14:17:55;17.60;93.10
38788;DHT22;24536;45.488;12.238;2023-05-02T14:20:20;17.60;93.00
38788;DHT22;24536;45.488;12.238;2023-05-02T14:22:50;17.60;93.20
38788;DHT22;24536;45.488;12.238;2023-05-02T14:25:16;17.60;93.10
38788;DHT22;24536;45.488;12.238;2023-05-02T14:27:44;17.60;93.40
38788;DHT22;24536;45.488;12.238;2023-05-02T14:30:10;17.60;93.20
38788;DHT22;24536;45.488;12.238;2023-05-02T14:32:36;17.60;93.00
38788;DHT22;24536;45.488;12.238;2023-05-02T14:35:02;17.70;93.20
38788;DHT22;24536;45.488;12.238;2023-05-02T14:37:28;17.70;93.30
38788;DHT22;24536;45.488;12.238;2023-05-02T14:39:54;17.70;93.30
38788;DHT22;24536;45.488;12.238;2023-05-02T14:42:24;17.80;93.40
38788;DHT22;24536;45.488;12.238;2023-05-02T14:44:49;17.80;93.50
38788;DHT22;24536;45.488;12.238;2023-05-02T14:47:16;17.80;93.40
38788;DHT22;24536;45.488;12.238;2023-05-02T14:49:41;17.80;93.40
38788;DHT22;24536;45.488;12.238;2023-05-02T14:52:07;17.90;93.50
38788;DHT22;24536;45.488;12.238;2023-05-02T14:54:33;17.90;93.60
38788;DHT22;24536;45.488;12.238;2023-05-02T14:56:59;17.90;93.70
38788;DHT22;24536;45.488;12.238;2023-05-02T14:59:29;17.90;93.70
38788;DHT22;24536;45.488;12.238;2023-05-02T15:01:56;18.00;93.60
38788;DHT22;24536;45.488;12.238;2023-05-02T15:04:21;18.00;93.70
38788;DHT22;24536;45.488;12.238;2023-05-02T15:06:48;18.00;93.80
38788;DHT22;24536;45.488;12.238;2023-05-02T15:09:13;18.00;93.80
38788;DHT22;24536;45.488;12.238;2023-05-02T15:11:40;18.00;93.70
38788;DHT22;24536;45.488;12.238;2023-05-02T15:14:06;18.00;93.70
38788;DHT22;24536;45.488;12.238;2023-05-02T15:16:32;18.00;93.60
38788;DHT22;24536;45.488;12.238;2023-05-02T15:18:58;18.00;93.60
38788;DHT22;24536;45.488;12.238;2023-05-02T15:21:23;18.00;93.60
38788;DHT22;24536;45.488;12.238;2023-05-02T15:23:49;18.00;93.70
38788;DHT22;24536;45.488;12.238;2023-05-02T15:26:15;18.10;93.90
38788;DHT22;24536;45.488;12.238;2023-05-02T15:28:40;18.10;93.80
38788;DHT22;24536;45.488;12.238;2023-05-02T15:31:06;18.00;93.90
38788;DHT22;24536;45.488;12.238;2023-05-02T15:33:32;18.10;93.90
38788;DHT22;24536;45.488;12.238;2023-05-02T15:35:58;18.00;93.70
38788;DHT22;24536;45.488;12.238;2023-05-02T15:38:24;18.00;93.70
38788;DHT22;24536;45.488;12.238;2023-05-02T15:40:54;18.00;93.80
38788;DHT22;24536;45.488;12.238;2023-05-02T15:43:20;18.00;93.90
38788;DHT22;24536;45.488;12.238;2023-05-02T15:45:53;18.00;93.80
38788;DHT22;24536;45.488;12.238;2023-05-02T15:48:20;18.00;93.90
38788;DHT22;24536;45.488;12.238;2023-05-02T15:50:46;18.00;93.90
38788;DHT22;24536;45.488;12.238;2023-05-02T15:53:13;18.00;94.00
38788;DHT22;24536;45.488;12.238;2023-05-02T15:55:40;18.00;94.10
38788;DHT22;24536;45.488;12.238;2023-05-02T15:58:11;18.00;94.20
38788;DHT22;24536;45.488;12.238;2023-05-02T16:00:37;18.00;94.20
38788;DHT22;24536;45.488;12.238;2023-05-02T16:03:03;18.00;94.30